Time;durP1;ratioP1;P1;durP2;ratioP2;P2;SDS_P1;SDS_P2;PMS_P1;PMS_P2;Temp;Humidity;BMP_temperature;BMP_pressure;BME280_temperature;BME280_humidity;BME280_pressure;Samples;Min_cycle;Max_cycle;Signal;HPM_P1;HPM_P2
2021/01/04 00:02:55;;;;;;;4.57;3.25;;;4.10;99.90;;;;;;5028891;28;20025;-59
2021/01/04 00:06:28;;;;;;;4.07;3.03;;;4.10;99.90;;;;;;5021436;28;20046;-59
2021/01/04 00:10:05;;;;;;;5.28;3.20;;;4.20;99.90;;;;;;5018958;28;20389;-58
2021/01/04 00:13:26;;;;;;;3.90;2.58;;;4.30;99.90;;;;;;5030575;28;20049;-59
2021/01/04 00:16:50;;;;;;;3.55;2.60;;;4.30;99.90;;;;;;5021277;28;20038;-59
2021/01/04 00:20:14;;;;;;;6.18;2.80;;;4.30;99.90;;;;;;5020675;28;20034;-58
2021/01/04 00:23:45;;;;;;;6.30;3.15;;;4.20;99.90;;;;;;5021981;28;20050;-59
2021/01/04 00:27:10;;;;;;;5.03;3.08;;;4.20;99.90;;;;;;5027580;28;20033;-60
2021/01/04 00:30:23;;;;;;;6.53;3.22;;;4.10;99.90;;;;;;5029426;28;20046;-59
2021/01/04 00:33:36;;;;;;;3.75;2.95;;;4.10;99.90;;;;;;5030597;28;20042;-57
2021/01/04 00:36:56;;;;;;;3.85;3.20;;;4.00;99.90;;;;;;5030867;28;20025;-58
2021/01/04 00:40:08;;;;;;;3.88;2.80;;;4.00;99.90;;;;;;5030174;28;20045;-60
2021/01/04 00:43:22;;;;;;;4.20;2.42;;;4.00;99.90;;;;;;5030134;28;20049;-59
2021/01/04 00:46:36;;;;;;;4.00;2.58;;;4.00;99.90;;;;;;5030036;28;20046;-58
2021/01/04 00:49:47;;;;;;;4.80;3.22;;;3.90;99.90;;;;;;5029621;28;20045;-59
2021/01/04 00:53:05;;;;;;;3.22;2.65;;;4.00;99.90;;;;;;5029386;28;20045;-57
2021/01/04 00:56:42;;;;;;;11.45;3.10;;;4.00;99.90;;;;;;5028507;28;20042;-58
2021/01/04 01:00:06;;;;;;;4.60;3.00;;;4.00;99.90;;;;;;5029206;28;20041;-60
2021/01/04 01:03:28;;;;;;;3.45;2.65;;;4.00;99.90;;;;;;5029564;28;20041;-56
2021/01/04 01:06:45;;;;;;;4.32;3.05;;;4.10;99.90;;;;;;5029551;28;20029;-57
2021/01/04 01:09:53;;;;;;;4.35;2.90;;;4.10;99.90;;;;;;5029069;28;20037;-58
2021/01/04 01:13:26;;;;;;;3.88;3.10;;;4.00;99.90;;;;;;5028934;28;20041;-59
2021/01/04 01:16:55;;;;;;;6.38;3.30;;;3.90;99.90;;;;;;5028089;28;20025;-59
2021/01/04 01:20:02;;;;;;;7.95;3.85;;;3.70;99.90;;;;;;5029073;28;20064;-59
2021/01/04 01:23:11;;;;;;;10.18;4.10;;;3.50;99.90;;;;;;5028350;28;20033;-56
2021/01/04 01:26:36;;;;;;;7.88;4.90;;;3.50;99.90;;;;;;5029680;28;20048;-57
2021/01/04 01:30:01;;;;;;;6.68;5.13;;;3.60;99.90;;;;;;5028932;28;20311;-56
2021/01/04 01:33:27;;;;;;;14.20;7.13;;;3.60;99.90;;;;;;5029077;28;20049;-57
2021/01/04 01:36:50;;;;;;;11.32;5.75;;;3.60;99.90;;;;;;5029679;28;20044;-58
2021/01/04 01:40:13;;;;;;;6.65;4.93;;;3.60;99.90;;;;;;5028610;28;20044;-59
2021/01/04 01:43:40;;;;;;;;;;;3.70;99.90;;;;;;5029724;28;20037;-60
2021/01/04 01:46:55;;;;;;;9.60;6.25;;;3.80;99.90;;;;;;5029625;28;19920;-60
2021/01/04 01:50:20;;;;;;;11.65;7.90;;;3.90;99.90;;;;;;5027449;28;20480;-58
2021/01/04 01:54:00;;;;;;;10.48;7.32;;;3.90;99.90;;;;;;5014064;28;20045;-58
2021/01/04 01:57:38;;;;;;;9.63;6.45;;;3.80;99.90;;;;;;5029181;28;20527;-59
2021/01/04 02:01:00;;;;;;;15.98;9.90;;;3.70;99.90;;;;;;5015894;28;20049;-59
2021/01/04 02:04:22;;;;;;;;;;;3.60;99.90;;;;;;5021255;28;20049;-59
2021/01/04 02:07:34;;;;;;;11.38;6.57;;;3.60;99.90;;;;;;5029175;28;20170;-60
2021/01/04 02:10:45;;;;;;;9.40;7.20;;;3.60;99.90;;;;;;5028477;28;20033;-60
2021/01/04 02:14:06;;;;;;;10.57;5.95;;;3.60;99.90;;;;;;5016236;28;20042;-59
2021/01/04 02:17:48;;;;;;;8.15;4.78;;;3.70;99.90;;;;;;5015929;28;20048;-60
2021/01/04 02:21:11;;;;;;;8.02;4.13;;;3.80;99.90;;;;;;5018528;28;20026;-58
2021/01/04 02:24:27;;;;;;;6.20;3.92;;;3.90;99.90;;;;;;5028499;28;20041;-59
2021/01/04 02:27:40;;;;;;;5.60;3.60;;;3.90;99.90;;;;;;5016588;28;20038;-58
2021/01/04 02:30:44;;;;;;;3.97;2.90;;;4.00;99.90;;;;;;5014571;28;20037;-59
2021/01/04 02:33:48;;;;;;;4.55;3.35;;;4.00;99.90;;;;;;5029433;28;20479;-58
2021/01/04 02:36:54;;;;;;;5.47;3.42;;;4.00;99.90;;;;;;5032620;28;20033;-58
2021/01/04 02:40:02;;;;;;;4.30;3.10;;;4.10;99.90;;;;;;5032217;28;20029;-59
2021/01/04 02:43:07;;;;;;;5.13;3.83;;;4.10;99.90;;;;;;5032273;28;20038;-59
2021/01/04 02:46:20;;;;;;;4.22;3.50;;;4.10;99.90;;;;;;5020193;28;20041;-56
2021/01/04 02:49:39;;;;;;;6.85;3.75;;;4.10;99.90;;;;;;5032001;28;20052;-59
2021/01/04 02:52:55;;;;;;;4.63;3.35;;;4.10;99.90;;;;;;5031628;28;20033;-59
2021/01/04 02:56:25;;;;;;;5.10;3.10;;;4.10;99.90;;;;;;5032337;28;20041;-60
2021/01/04 02:59:36;;;;;;;7.65;4.07;;;4.10;99.90;;;;;;5031467;28;20037;-59
2021/01/04 03:02:46;;;;;;;6.55;3.88;;;4.10;99.90;;;;;;5031859;28;20384;-59
2021/01/04 03:05:51;;;;;;;5.18;4.10;;;4.00;99.90;;;;;;5032063;28;20038;-57
2021/01/04 03:08:56;;;;;;;4.72;3.70;;;4.00;99.90;;;;;;5031848;28;20038;-59
2021/01/04 03:12:06;;;;;;;6.80;3.85;;;4.00;99.90;;;;;;5031533;28;20041;-59
2021/01/04 03:15:25;;;;;;;6.13;3.90;;;4.00;99.90;;;;;;5022575;28;20274;-59
2021/01/04 03:18:53;;;;;;;5.70;3.72;;;4.00;99.90;;;;;;5018562;28;20033;-59
2021/01/04 03:22:04;;;;;;;6.65;3.30;;;3.90;99.90;;;;;;5018256;28;20500;-59
2021/01/04 03:25:44;;;;;;;8.68;4.25;;;3.90;99.90;;;;;;5031738;28;20376;-59
2021/01/04 03:28:48;;;;;;;6.22;3.75;;;4.00;99.90;;;;;;5013822;28;20041;-58
2021/01/04 03:31:52;;;;;;;4.00;3.00;;;4.00;99.90;;;;;;5026676;28;20037;-57
2021/01/04 03:34:22;;;;;;;4.80;2.92;;;4.00;99.90;;;;;;5063560;22;20049;-71
2021/01/04 03:37:26;;;;;;;4.18;3.17;;;4.00;99.90;;;;;;5066871;28;20044;-72
2021/01/04 03:40:30;;;;;;;5.90;3.30;;;4.00;99.90;;;;;;5070925;28;20468;-71
2021/01/04 03:43:34;;;;;;;4.90;3.50;;;4.00;99.90;;;;;;5065895;28;20036;-71
2021/01/04 03:46:45;;;;;;;4.88;3.40;;;4.00;99.90;;;;;;5063737;28;20044;-71
2021/01/04 03:49:49;;;;;;;7.38;3.75;;;4.00;99.90;;;;;;5070431;28;20028;-71
2021/01/04 03:52:53;;;;;;;6.70;3.60;;;4.00;99.90;;;;;;5067857;28;20040;-71
2021/01/04 03:55:57;;;;;;;4.57;3.25;;;4.00;99.90;;;;;;5071998;28;20372;-71
2021/01/04 03:59:01;;;;;;;4.82;3.50;;;3.90;99.90;;;;;;5071043;28;20037;-71
2021/01/04 04:02:07;;;;;;;3.60;3.00;;;3.90;99.90;;;;;;5062681;28;20040;-72
2021/01/04 04:05:13;;;;;;;4.95;2.50;;;3.90;99.90;;;;;;5059984;28;20037;-72
2021/01/04 04:08:18;;;;;;;5.97;3.20;;;3.80;99.90;;;;;;5057472;28;20387;-71
2021/01/04 04:11:22;;;;;;;4.65;3.20;;;3.70;99.90;;;;;;5070372;28;20048;-72
2021/01/04 04:14:26;;;;;;;3.47;3.00;;;3.80;99.90;;;;;;5070603;28;20049;-72
2021/01/04 04:17:30;;;;;;;5.03;3.50;;;3.70;99.90;;;;;;5071554;28;20059;-71
2021/01/04 04:20:34;;;;;;;5.07;3.13;;;3.70;99.90;;;;;;5070954;28;20033;-71
2021/01/04 04:23:38;;;;;;;4.53;3.47;;;3.70;99.90;;;;;;5058069;28;20364;-72
2021/01/04 04:26:42;;;;;;;5.15;3.55;;;3.80;99.90;;;;;;5071189;28;20040;-72
2021/01/04 04:29:46;;;;;;;5.38;3.53;;;3.80;99.90;;;;;;5070594;28;20483;-72
2021/01/04 04:32:55;;;;;;;6.07;4.20;;;3.80;99.90;;;;;;5070631;28;20486;-72
2021/01/04 04:36:00;;;;;;;5.82;4.15;;;3.90;99.90;;;;;;5061866;28;20037;-72
2021/01/04 04:39:04;;;;;;;11.40;4.40;;;3.90;99.90;;;;;;5057782;28;20041;-71
2021/01/04 04:42:12;;;;;;;5.53;4.05;;;4.00;99.90;;;;;;5070481;28;20036;-72
2021/01/04 04:45:20;;;;;;;6.70;4.72;;;4.10;99.90;;;;;;5071291;28;20044;-72
2021/01/04 04:48:55;;;;;;;7.22;4.30;;;4.10;99.90;;;;;;5071163;28;20049;-72
2021/01/04 04:52:09;;;;;;;5.22;3.78;;;4.20;99.90;;;;;;5070106;28;20376;-71
2021/01/04 04:55:35;;;;;;;6.95;4.82;;;4.20;99.90;;;;;;5071316;28;20455;-71
2021/01/04 04:58:39;;;;;;;6.00;4.50;;;4.10;99.90;;;;;;5069730;28;20503;-71
2021/01/04 05:02:00;;;;;;;7.47;4.90;;;4.10;99.90;;;;;;5058195;28;20024;-71
2021/01/04 05:05:30;;;;;;;6.10;4.30;;;4.00;99.90;;;;;;5058950;28;20033;-72
2021/01/04 05:08:46;;;;;;;7.05;5.20;;;3.80;99.90;;;;;;5059544;28;20045;-72
2021/01/04 05:12:15;;;;;;;7.88;5.60;;;3.70;99.90;;;;;;5057728;28;20535;-71
2021/01/04 05:15:35;;;;;;;6.90;5.32;;;3.70;99.90;;;;;;5062585;28;20036;-72
2021/01/04 05:19:10;;;;;;;9.73;6.80;;;3.70;99.90;;;;;;5058700;28;20056;-72
2021/01/04 05:22:36;;;;;;;11.50;6.13;;;3.70;99.90;;;;;;5070603;28;20040;-71
2021/01/04 05:25:46;;;;;;;11.82;6.20;;;3.70;99.90;;;;;;5070670;28;20043;-72
2021/01/04 05:29:12;;;;;;;9.98;6.13;;;3.60;99.90;;;;;;5056493;28;20040;-71
2021/01/04 05:32:38;;;;;;;9.50;7.03;;;3.50;99.90;;;;;;5060618;28;20036;-72
2021/01/04 05:35:45;;;;;;;10.20;7.78;;;3.40;99.90;;;;;;5070042;28;20033;-72
2021/01/04 05:39:22;;;;;;;10.98;7.60;;;3.30;99.90;;;;;;5069918;28;20055;-72
2021/01/04 05:42:50;;;;;;;8.50;6.00;;;3.20;99.90;;;;;;5056684;28;20399;-72
2021/01/04 05:46:03;;;;;;;11.43;7.70;;;3.10;99.90;;;;;;5069190;28;20044;-72
2021/01/04 05:49:33;;;;;;;10.05;7.25;;;3.10;99.90;;;;;;5070412;28;20051;-71
2021/01/04 05:52:37;;;;;;;9.35;6.75;;;3.10;99.90;;;;;;5056755;28;20035;-72
2021/01/04 05:55:41;;;;;;;13.20;8.18;;;3.10;99.90;;;;;;5070360;28;20029;-72
2021/01/04 05:58:45;;;;;;;12.75;8.32;;;3.10;99.90;;;;;;5068825;28;20039;-71
2021/01/04 06:02:04;;;;;;;16.42;9.68;;;3.10;99.90;;;;;;5068798;28;20064;-72
2021/01/04 06:05:17;;;;;;;76.70;15.15;;;3.20;99.90;;;;;;5058629;28;20048;-70
2021/01/04 06:08:31;;;;;;;13.40;8.73;;;3.30;99.90;;;;;;5071360;28;20039;-71
2021/01/04 06:11:47;;;;;;;13.50;9.32;;;3.50;99.90;;;;;;5068217;28;20043;-72
2021/01/04 06:14:58;;;;;;;12.77;8.50;;;3.50;99.90;;;;;;5073646;28;20375;-72
2021/01/04 06:18:18;;;;;;;9.35;5.53;;;3.50;99.90;;;;;;5073887;28;20047;-70
2021/01/04 06:21:44;;;;;;;7.22;5.03;;;3.40;99.90;;;;;;5072107;28;20028;-71
2021/01/04 06:25:00;;;;;;;6.38;4.68;;;3.40;99.90;;;;;;5063469;28;20037;-71
2021/01/04 06:28:05;;;;;;;13.23;7.43;;;3.40;99.90;;;;;;5060892;28;20033;-72
2021/01/04 06:31:14;;;;;;;8.15;5.10;;;3.50;99.90;;;;;;5056077;28;20067;-72
2021/01/04 06:34:30;;;;;;;6.95;5.07;;;3.40;99.90;;;;;;5064349;28;20036;-71
2021/01/04 06:37:34;;;;;;;12.38;7.93;;;3.30;99.90;;;;;;5056748;28;20037;-72
2021/01/04 06:40:45;;;;;;;8.93;7.00;;;3.20;99.90;;;;;;5065261;28;20043;-72
2021/01/04 06:43:49;;;;;;;24.52;15.15;;;3.10;99.90;;;;;;5057700;28;20053;-72
2021/01/04 06:47:17;;;;;;;22.30;14.25;;;3.00;99.90;;;;;;5058102;28;20100;-72
2021/01/04 06:50:27;;;;;;;12.38;8.05;;;2.90;99.90;;;;;;5056034;28;20059;-72
2021/01/04 06:53:58;;;;;;;13.38;7.72;;;2.90;99.90;;;;;;5053939;28;20044;-72
2021/01/04 06:57:27;;;;;;;97.18;25.60;;;2.80;99.90;;;;;;5060321;28;20047;-72
2021/01/04 07:01:02;;;;;;;25.50;16.38;;;2.90;99.90;;;;;;5066869;28;20032;-72
2021/01/04 07:04:31;;;;;;;16.00;10.70;;;2.90;99.90;;;;;;5066859;28;20052;-72
2021/01/04 07:08:07;;;;;;;132.82;73.72;;;2.90;99.90;;;;;;5061641;28;20115;-72
2021/01/04 07:11:24;;;;;;;22.67;14.70;;;2.90;99.90;;;;;;5066653;28;20397;-72
2021/01/04 07:14:59;;;;;;;26.65;10.93;;;3.00;99.90;;;;;;5066539;28;20052;-71
2021/01/04 07:18:09;;;;;;;15.95;8.32;;;3.10;99.90;;;;;;5071307;28;20044;-71
2021/01/04 07:21:52;;;;;;;12.88;7.47;;;3.20;99.90;;;;;;5063245;28;20036;-72
2021/01/04 07:25:25;;;;;;;16.67;8.50;;;3.30;99.90;;;;;;5060042;28;20035;-72
2021/01/04 07:28:41;;;;;;;12.27;6.40;;;3.50;99.90;;;;;;5056983;28;20036;-72
2021/01/04 07:31:54;;;;;;;10.38;5.50;;;3.50;99.90;;;;;;5055223;28;20035;-72
2021/01/04 07:35:10;;;;;;;9.68;5.07;;;3.70;99.90;;;;;;5059436;28;20490;-72
2021/01/04 07:38:43;;;;;;;5.50;3.60;;;4.50;99.90;;;;;;5053979;28;20017;-72
2021/01/04 07:42:26;;;;;;;3.58;2.50;;;7.10;99.90;;;;;;5052379;28;20040;-72
2021/01/04 07:45:59;;;;;;;;;;;10.20;99.90;;;;;;5052490;28;20476;-72
2021/01/04 07:49:24;;;;;;;2.35;1.80;;;12.40;99.90;;;;;;5059548;28;19916;-72
2021/01/04 07:52:59;;;;;;;3.03;2.08;;;12.90;99.90;;;;;;5073236;28;20044;-72
2021/01/04 07:56:22;;;;;;;2.42;1.80;;;12.00;99.90;;;;;;5057434;28;20036;-72
2021/01/04 08:00:01;;;;;;;2.33;1.90;;;13.10;99.90;;;;;;5055215;28;20036;-72
2021/01/04 08:03:35;;;;;;;2.78;1.70;;;13.90;99.90;;;;;;5058623;28;20044;-72
2021/01/04 08:07:12;;;;;;;;;;;14.10;99.90;;;;;;5058455;28;20043;-72
2021/01/04 08:10:54;;;;;;;2.40;1.67;;;14.90;99.90;;;;;;5046961;28;19915;-72
2021/01/04 08:14:17;;;;;;;2.47;1.48;;;16.00;99.90;;;;;;5029310;28;20506;-72
2021/01/04 08:17:48;;;;;;;2.63;1.65;;;18.00;99.90;;;;;;5055602;28;20044;-72
2021/01/04 08:21:07;;;;;;;2.67;1.80;;;17.80;98.70;;;;;;5061899;28;20043;-72
2021/01/04 08:24:28;;;;;;;4.20;2.00;;;15.50;99.70;;;;;;5060772;28;20028;-72
2021/01/04 08:27:42;;;;;;;2.97;1.80;;;15.00;99.90;;;;;;5070379;28;20051;-72
2021/01/04 08:31:00;;;;;;;3.70;1.90;;;13.80;99.90;;;;;;5069220;28;20044;-72
2021/01/04 08:34:08;;;;;;;2.92;2.03;;;12.90;99.90;;;;;;5065760;28;20044;-72
2021/01/04 08:37:17;;;;;;;3.17;1.98;;;13.80;99.90;;;;;;5069481;28;20055;-72
2021/01/04 08:40:28;;;;;;;2.83;1.95;;;14.10;99.90;;;;;;5068235;28;20111;-72
2021/01/04 08:43:37;;;;;;;3.25;2.13;;;14.10;99.90;;;;;;5058865;28;20036;-72
2021/01/04 08:46:44;;;;;;;11.85;2.40;;;16.10;99.90;;;;;;5067488;28;20043;-72
2021/01/04 08:49:48;;;;;;;5.47;2.00;;;18.50;99.90;;;;;;5059291;28;20044;-72
2021/01/04 08:53:13;;;;;;;2.78;2.00;;;18.30;99.00;;;;;;5061226;28;20048;-72
2021/01/04 08:56:23;;;;;;;3.05;2.28;;;15.80;99.90;;;;;;5057325;28;20036;-72
2021/01/04 08:59:32;;;;;;;3.35;2.30;;;14.50;99.90;;;;;;5058839;28;20035;-72
2021/01/04 09:02:42;;;;;;;3.13;2.08;;;13.20;99.90;;;;;;5056111;28;20040;-71
2021/01/04 09:05:46;;;;;;;3.22;2.35;;;11.70;99.90;;;;;;5053985;28;20039;-71
2021/01/04 09:09:19;;;;;;;5.93;3.03;;;10.50;99.90;;;;;;5053442;28;20047;-71
2021/01/04 09:12:38;;;;;;;4.15;3.05;;;9.50;99.90;;;;;;5061357;28;20031;-71
2021/01/04 09:15:43;;;;;;;5.35;3.10;;;9.40;99.90;;;;;;5064205;28;20388;-71
2021/01/04 09:18:50;;;;;;;5.95;3.60;;;10.70;99.90;;;;;;5054810;28;20036;-71
2021/01/04 09:22:07;;;;;;;5.75;3.42;;;12.20;99.90;;;;;;5057581;28;20040;-71
2021/01/04 09:25:41;;;;;;;4.72;2.97;;;15.10;99.90;;;;;;5058726;28;20039;-72
2021/01/04 09:28:53;;;;;;;4.15;2.28;;;18.10;99.90;;;;;;5067771;28;20044;-73
2021/01/04 09:32:13;;;;;;;4.03;3.25;;;18.80;99.70;;;;;;5068932;28;20047;-72
2021/01/04 09:35:22;;;;;;;3.72;2.72;;;19.30;96.80;;;;;;5069269;28;20039;-72
2021/01/04 09:38:27;;;;;;;3.30;2.10;;;19.10;96.30;;;;;;5066149;28;20029;-72
2021/01/04 09:41:31;;;;;;;3.63;2.20;;;18.60;95.00;;;;;;5059378;28;20040;-72
2021/01/04 09:44:35;;;;;;;3.40;1.95;;;18.60;95.80;;;;;;5064293;28;20479;-72
2021/01/04 09:47:58;;;;;;;4.60;2.10;;;18.30;97.90;;;;;;5068336;28;20052;-72
2021/01/04 09:51:08;;;;;;;5.55;2.72;;;18.80;95.70;;;;;;5057398;28;20063;-72
2021/01/04 09:54:18;;;;;;;5.22;2.13;;;18.60;95.10;;;;;;5058567;28;20040;-72
2021/01/04 09:57:24;;;;;;;4.75;2.20;;;15.70;97.60;;;;;;5060766;28;20689;-72
2021/01/04 10:00:35;;;;;;;6.28;2.00;;;12.40;99.90;;;;;;5056791;28;20040;-72
2021/01/04 10:03:50;;;;;;;3.17;2.10;;;10.30;99.90;;;;;;5057503;28;20047;-72
2021/01/04 10:06:56;;;;;;;7.50;2.30;;;11.30;99.90;;;;;;5065571;28;20035;-72
2021/01/04 10:10:01;;;;;;;3.03;2.25;;;12.40;99.90;;;;;;5062561;28;20044;-72
2021/01/04 10:13:25;;;;;;;4.65;1.80;;;14.20;99.90;;;;;;5056922;28;20043;-72
2021/01/04 10:16:31;;;;;;;4.05;1.88;;;14.60;99.90;;;;;;5062067;28;20379;-72
2021/01/04 10:19:49;;;;;;;14.50;1.83;;;13.90;99.90;;;;;;5060448;28;20379;-71
2021/01/04 10:22:57;;;;;;;3.90;1.50;;;14.00;99.90;;;;;;5049591;28;20048;-71
2021/01/04 10:26:04;;;;;;;1.65;0.93;;;13.70;99.90;;;;;;5050056;28;20044;-71
2021/01/04 10:29:09;;;;;;;1.70;1.10;;;12.00;99.90;;;;;;5049723;28;20052;-72
2021/01/04 10:32:22;;;;;;;1.27;0.80;;;11.30;99.90;;;;;;5059877;28;20044;-72
2021/01/04 10:35:27;;;;;;;1.15;1.00;;;10.60;99.90;;;;;;5055344;28;20059;-73
2021/01/04 10:38:34;;;;;;;1.33;0.90;;;11.70;99.90;;;;;;5051411;28;20040;-71
2021/01/04 10:41:38;;;;;;;2.40;0.80;;;11.90;99.90;;;;;;5048387;28;20036;-73
2021/01/04 10:44:42;;;;;;;1.50;0.90;;;12.90;99.90;;;;;;5055417;28;20047;-72
2021/01/04 10:47:48;;;;;;;3.25;0.95;;;12.00;99.90;;;;;;5056124;28;20552;-72
2021/01/04 10:50:57;;;;;;;3.38;1.10;;;12.30;99.90;;;;;;5067636;28;20069;-72
2021/01/04 10:54:32;;;;;;;2.53;1.15;;;14.10;99.90;;;;;;5055894;28;20775;-73
2021/01/04 10:57:44;;;;;;;2.28;0.90;;;16.00;99.90;;;;;;5060665;28;20677;-73
2021/01/04 11:01:02;;;;;;;2.67;0.80;;;19.90;96.20;;;;;;5070992;28;20478;-73
2021/01/04 11:04:10;;;;;;;2.15;0.90;;;18.90;94.90;;;;;;5069468;28;20625;-73
2021/01/04 11:07:33;;;;;;;1.67;1.00;;;15.80;96.60;;;;;;5057889;28;20063;-72
2021/01/04 11:10:37;;;;;;;1.50;1.00;;;13.10;99.90;;;;;;5062901;28;20059;-72
2021/01/04 11:14:11;;;;;;;2.75;1.00;;;11.00;99.90;;;;;;5054815;28;20380;-71
2021/01/04 11:17:22;;;;;;;2.22;1.10;;;9.70;99.90;;;;;;5051659;28;20048;-72
2021/01/04 11:20:27;;;;;;;2.35;1.02;;;8.70;99.90;;;;;;5053833;28;20044;-72
2021/01/04 11:23:32;;;;;;;2.25;1.20;;;8.60;99.90;;;;;;5057596;28;20040;-72
2021/01/04 11:26:36;;;;;;;3.17;1.70;;;8.30;99.90;;;;;;5054245;28;20032;-72
2021/01/04 11:29:44;;;;;;;6.38;3.20;;;8.20;99.90;;;;;;5052535;28;20037;-72
2021/01/04 11:32:49;;;;;;;3.63;1.63;;;8.10;99.90;;;;;;5052976;28;20061;-72
2021/01/04 11:35:55;;;;;;;11.85;5.18;;;8.30;99.90;;;;;;5062177;28;20052;-73
2021/01/04 11:39:00;;;;;;;4.78;2.08;;;7.80;99.90;;;;;;5064358;28;20043;-73
2021/01/04 11:42:05;;;;;;;6.03;1.80;;;7.70;99.90;;;;;;5072000;28;20485;-73
2021/01/04 11:45:15;;;;;;;3.88;2.38;;;7.90;99.90;;;;;;5054257;28;20037;-73
2021/01/04 11:48:20;;;;;;;4.45;1.70;;;8.10;99.90;;;;;;5065892;28;20037;-72
2021/01/04 11:51:27;;;;;;;3.47;1.98;;;7.80;99.90;;;;;;5059815;28;20349;-72
2021/01/04 11:54:32;;;;;;;5.00;1.70;;;8.30;99.90;;;;;;5052595;28;20040;-72
2021/01/04 11:57:37;;;;;;;4.57;1.70;;;8.40;99.90;;;;;;5054252;28;20033;-72
2021/01/04 12:00:41;;;;;;;4.97;1.80;;;8.10;99.90;;;;;;5071083;28;20036;-72
2021/01/04 12:03:45;;;;;;;2.97;1.40;;;8.20;99.90;;;;;;5065293;28;20029;-72
2021/01/04 12:06:50;;;;;;;4.07;1.60;;;9.10;99.90;;;;;;5076059;28;20044;-72
2021/01/04 12:09:55;;;;;;;4.88;1.80;;;11.40;99.90;;;;;;5067035;28;20024;-72
2021/01/04 12:13:00;;;;;;;2.00;1.38;;;11.50;99.90;;;;;;5061027;28;20036;-72
2021/01/04 12:16:05;;;;;;;4.28;1.30;;;10.50;99.90;;;;;;5066047;28;20043;-72
2021/01/04 12:19:12;;;;;;;3.67;2.20;;;10.60;99.90;;;;;;5068291;28;20049;-72
2021/01/04 12:22:17;;;;;;;4.05;1.88;;;11.20;99.90;;;;;;5066639;28;20390;-73
2021/01/04 12:25:21;;;;;;;1.90;1.30;;;12.40;99.90;;;;;;5063981;28;20035;-72
2021/01/04 12:28:25;;;;;;;2.15;1.30;;;12.20;99.90;;;;;;5066281;28;20047;-71
2021/01/04 12:31:35;;;;;;;2.28;1.40;;;11.80;99.90;;;;;;5070900;28;20056;-72
2021/01/04 12:34:40;;;;;;;6.63;1.83;;;10.90;99.90;;;;;;5071300;28;20043;-73
2021/01/04 12:37:45;;;;;;;3.22;1.60;;;9.80;99.90;;;;;;5055772;28;20035;-72
2021/01/04 12:40:51;;;;;;;4.15;1.50;;;9.40;99.90;;;;;;5067944;28;20037;-72
2021/01/04 12:43:55;;;;;;;2.50;1.95;;;8.90;99.90;;;;;;5070093;28;20037;-72
2021/01/04 12:46:59;;;;;;;2.67;1.70;;;9.10;99.90;;;;;;5053834;28;20040;-72
2021/01/04 12:50:05;;;;;;;4.45;2.58;;;9.10;99.90;;;;;;5050004;28;20777;-71
2021/01/04 12:53:10;;;;;;;4.90;1.75;;;10.20;99.90;;;;;;5055782;28;20033;-73
2021/01/04 12:56:17;;;;;;;2.20;1.50;;;11.10;99.90;;;;;;5052403;28;20499;-73
2021/01/04 12:59:26;;;;;;;3.55;1.90;;;11.00;99.90;;;;;;5052452;28;20047;-72
2021/01/04 13:02:30;;;;;;;2.03;1.27;;;10.80;99.90;;;;;;5054121;28;20056;-72
2021/01/04 13:05:35;;;;;;;3.50;1.60;;;9.80;99.90;;;;;;5050450;28;20036;-72
2021/01/04 13:08:39;;;;;;;2.38;1.45;;;9.50;99.90;;;;;;5057843;28;20037;-72
2021/01/04 13:11:48;;;;;;;6.32;1.60;;;9.50;99.90;;;;;;5072749;28;20036;-72
2021/01/04 13:14:52;;;;;;;3.13;1.30;;;9.20;99.90;;;;;;5060253;28;20045;-72
2021/01/04 13:17:56;;;;;;;4.45;1.50;;;8.70;99.90;;;;;;5052367;28;20029;-72
2021/01/04 13:21:00;;;;;;;2.78;1.20;;;8.60;99.90;;;;;;5052787;28;20021;-72
2021/01/04 13:24:08;;;;;;;2.50;1.42;;;8.40;99.90;;;;;;5062087;28;20040;-72
2021/01/04 13:27:12;;;;;;;3.10;1.77;;;8.30;99.90;;;;;;5053988;28;20033;-72
2021/01/04 13:30:16;;;;;;;4.53;1.98;;;8.10;99.90;;;;;;5051825;28;20029;-72
2021/01/04 13:33:22;;;;;;;4.18;1.98;;;8.60;99.90;;;;;;5055501;28;20049;-72
2021/01/04 13:36:26;;;;;;;3.42;1.52;;;9.40;99.90;;;;;;5057410;28;20029;-72
2021/01/04 13:39:31;;;;;;;5.97;1.65;;;9.90;99.90;;;;;;5050176;28;20037;-73
2021/01/04 13:42:36;;;;;;;6.68;2.40;;;10.90;99.90;;;;;;5048260;28;20037;-72
2021/01/04 13:45:40;;;;;;;6.63;3.05;;;9.60;99.90;;;;;;5052710;28;20067;-72
2021/01/04 13:48:44;;;;;;;3.60;2.45;;;9.80;99.90;;;;;;5054942;28;20033;-72
2021/01/04 13:51:48;;;;;;;1.60;1.00;;;10.40;99.90;;;;;;5053728;28;20040;-72
2021/01/04 13:54:52;;;;;;;4.43;1.90;;;11.30;99.90;;;;;;5055311;28;20036;-72
2021/01/04 13:57:56;;;;;;;6.60;2.75;;;11.60;99.90;;;;;;5053239;28;20036;-72
2021/01/04 14:01:01;;;;;;;3.17;1.80;;;10.50;99.90;;;;;;5051499;28;20043;-72
2021/01/04 14:04:05;;;;;;;2.25;1.45;;;9.40;99.90;;;;;;5052102;28;20052;-72
2021/01/04 14:07:10;;;;;;;4.40;2.13;;;9.00;99.90;;;;;;5061780;28;20040;-72
2021/01/04 14:10:14;;;;;;;3.15;1.42;;;8.70;99.90;;;;;;5049941;28;20037;-72
2021/01/04 14:13:20;;;;;;;3.10;1.40;;;8.60;99.90;;;;;;5050174;28;20041;-71
2021/01/04 14:16:26;;;;;;;4.15;3.08;;;8.50;99.90;;;;;;5053262;28;20040;-72
2021/01/04 14:19:31;;;;;;;3.15;2.20;;;8.80;99.90;;;;;;5050054;28;20037;-72
2021/01/04 14:22:37;;;;;;;3.15;2.08;;;8.70;99.90;;;;;;5054139;28;20464;-72
2021/01/04 14:25:41;;;;;;;2.88;1.48;;;8.30;99.90;;;;;;5050220;28;20032;-72
2021/01/04 14:28:45;;;;;;;2.22;1.40;;;7.90;99.90;;;;;;5048766;28;20037;-72
2021/01/04 14:31:49;;;;;;;1.80;1.13;;;7.90;99.90;;;;;;5071109;28;20040;-72
2021/01/04 14:34:56;;;;;;;2.03;1.13;;;7.50;99.90;;;;;;5061292;28;20040;-72
2021/01/04 14:38:02;;;;;;;3.25;1.42;;;7.40;99.90;;;;;;5058254;28;20029;-72
2021/01/04 14:41:06;;;;;;;2.15;1.20;;;7.40;99.90;;;;;;5054358;28;20037;-72
2021/01/04 14:44:13;;;;;;;2.05;1.50;;;7.20;99.90;;;;;;5058394;28;20048;-72
2021/01/04 14:47:18;;;;;;;4.88;1.80;;;7.20;99.90;;;;;;5059487;28;20049;-72
2021/01/04 14:50:23;;;;;;;1.70;1.40;;;7.30;99.90;;;;;;5060066;28;20033;-72
2021/01/04 14:53:27;;;;;;;10.77;6.70;;;7.40;99.90;;;;;;5059064;28;20037;-72
2021/01/04 14:56:31;;;;;;;6.38;2.97;;;7.60;99.90;;;;;;5055120;28;20044;-72
2021/01/04 14:59:39;;;;;;;3.65;2.53;;;7.80;99.90;;;;;;5056534;28;20029;-72
2021/01/04 15:02:44;;;;;;;8.25;4.75;;;8.00;99.90;;;;;;5059816;28;20036;-72
2021/01/04 15:05:48;;;;;;;6.32;3.83;;;8.10;99.90;;;;;;5065835;28;20044;-72
2021/01/04 15:08:52;;;;;;;9.88;6.32;;;8.60;99.90;;;;;;5054525;28;20029;-73
2021/01/04 15:11:57;;;;;;;11.05;6.38;;;9.10;99.90;;;;;;5053765;28;20036;-72
2021/01/04 15:15:11;;;;;;;3.78;1.80;;;9.10;99.90;;;;;;5059091;28;20510;-73
2021/01/04 15:18:16;;;;;;;4.13;2.95;;;8.80;99.90;;;;;;5056801;28;20053;-72
2021/01/04 15:21:21;;;;;;;4.57;2.47;;;8.40;99.90;;;;;;5057730;28;20365;-72
2021/01/04 15:24:25;;;;;;;5.72;3.15;;;8.10;99.90;;;;;;5057506;28;20040;-72
2021/01/04 15:27:29;;;;;;;7.05;3.30;;;7.70;99.90;;;;;;5061379;28;20029;-72
2021/01/04 15:30:33;;;;;;;4.75;2.60;;;7.50;99.90;;;;;;5057269;28;20369;-72
2021/01/04 15:33:39;;;;;;;10.25;7.03;;;7.40;99.90;;;;;;5057584;28;20045;-72
2021/01/04 15:36:52;;;;;;;6.05;3.78;;;7.20;99.90;;;;;;5062339;28;20040;-72
2021/01/04 15:39:59;;;;;;;7.22;4.90;;;6.90;99.90;;;;;;5060653;28;20040;-72
2021/01/04 15:43:04;;;;;;;7.43;4.70;;;6.60;99.90;;;;;;5060406;28;20037;-73
2021/01/04 15:46:09;;;;;;;5.68;3.83;;;6.40;99.90;;;;;;5057133;28;20045;-73
2021/01/04 15:49:15;;;;;;;8.73;4.70;;;6.20;99.90;;;;;;5055951;28;20044;-73
2021/01/04 15:52:19;;;;;;;6.88;5.50;;;6.10;99.90;;;;;;5068743;28;20040;-72
2021/01/04 15:55:23;;;;;;;6.85;4.32;;;5.90;99.90;;;;;;5067913;28;20056;-72
2021/01/04 15:58:29;;;;;;;10.18;5.20;;;5.70;99.90;;;;;;5057623;28;20036;-72
2021/01/04 16:01:39;;;;;;;10.10;5.90;;;5.70;99.90;;;;;;5060749;28;20044;-72
2021/01/04 16:04:43;;;;;;;13.05;8.65;;;5.60;99.90;;;;;;5056185;28;20036;-72
2021/01/04 16:07:47;;;;;;;8.60;5.53;;;5.50;99.90;;;;;;5062826;28;20056;-72
2021/01/04 16:10:51;;;;;;;18.88;11.10;;;5.60;99.90;;;;;;5069419;28;20353;-72
2021/01/04 16:13:56;;;;;;;14.55;10.23;;;5.60;99.90;;;;;;5066770;28;20479;-72
2021/01/04 16:17:03;;;;;;;16.67;6.68;;;5.50;99.90;;;;;;5058607;28;20048;-72
2021/01/04 16:20:08;;;;;;;11.10;6.43;;;5.40;99.90;;;;;;5051970;28;20040;-72
2021/01/04 16:23:12;;;;;;;15.77;7.60;;;5.30;99.90;;;;;;5067697;28;20035;-72
2021/01/04 16:26:16;;;;;;;15.57;10.65;;;5.40;99.90;;;;;;5068845;28;20032;-72
2021/01/04 16:29:21;;;;;;;14.73;8.68;;;5.40;99.90;;;;;;5060103;28;20413;-72
2021/01/04 16:32:25;;;;;;;15.05;8.63;;;5.40;99.90;;;;;;5069311;28;20048;-72
2021/01/04 16:35:31;;;;;;;12.05;8.52;;;5.30;99.90;;;;;;5070283;28;20051;-72
2021/01/04 16:38:35;;;;;;;16.45;10.32;;;5.30;99.90;;;;;;5070137;28;20040;-72
2021/01/04 16:41:39;;;;;;;17.63;11.30;;;5.30;99.90;;;;;;5057260;28;20044;-72
2021/01/04 16:44:44;;;;;;;15.15;9.95;;;5.30;99.90;;;;;;5068832;28;20043;-72
2021/01/04 16:47:48;;;;;;;16.40;10.27;;;5.40;99.90;;;;;;5064127;28;20070;-72
2021/01/04 16:50:52;;;;;;;18.63;11.05;;;5.50;99.90;;;;;;5068853;28;20544;-72